Terminal Aerodrome Forecast
Issued by NWS

Home | Current Version | Previous Version | Text Only | Print | Product List | Glossary On
Versions: 1 2 3 4 5 6 7 8 9 10 11 12 13 14 15 16 17
000
FTUS43 KDVN 040918 AAA
TAFBRL
TAF AMD
KBRL 040918Z 0409/0506 09012KT P6SM VCSH BKN050
      TEMPO 0409/0411 6SM -TSRA BR BKN030CB
     FM041300 23007KT P6SM SCT040 BKN090
     FM042100 23005KT P6SM VCTS BKN050CB OVC110 PROB30 0500/0506 2SM
      TSRA BKN024CB OVC040=

USA.gov is the U.S. government's official web portal to all federal, state and local government web resources and services.